sensor_id;sensor_type;location;lat;lon;timestamp;temperature;humidity
16243;DHT22;11719;51.052;6.982;2023-02-28T00:00:47;9.20;95.10
16243;DHT22;11719;51.052;6.982;2023-02-28T00:03:13;9.10;99.40
16243;DHT22;11719;51.052;6.982;2023-02-28T00:05:39;9.30;99.90
16243;DHT22;11719;51.052;6.982;2023-02-28T00:08:05;9.50;94.60
16243;DHT22;11719;51.052;6.982;2023-02-28T00:10:31;9.10;92.80
16243;DHT22;11719;51.052;6.982;2023-02-28T00:13:05;9.00;98.30
16243;DHT22;11719;51.052;6.982;2023-02-28T00:15:32;9.60;99.90
16243;DHT22;11719;51.052;6.982;2023-02-28T00:17:58;9.80;98.10
16243;DHT22;11719;51.052;6.982;2023-02-28T00:20:24;10.30;97.30
16243;DHT22;11719;51.052;6.982;2023-02-28T00:22:51;10.60;99.00
16243;DHT22;11719;51.052;6.982;2023-02-28T00:25:20;10.70;93.40
16243;DHT22;11719;51.052;6.982;2023-02-28T00:27:49;10.60;97.60
16243;DHT22;11719;51.052;6.982;2023-02-28T00:30:17;10.70;93.80
16243;DHT22;11719;51.052;6.982;2023-02-28T00:32:44;10.80;98.30
16243;DHT22;11719;51.052;6.982;2023-02-28T00:35:10;11.20;94.60
16243;DHT22;11719;51.052;6.982;2023-02-28T00:37:37;11.20;98.10
16243;DHT22;11719;51.052;6.982;2023-02-28T00:40:04;11.40;91.90
16243;DHT22;11719;51.052;6.982;2023-02-28T00:42:32;11.20;96.30
16243;DHT22;11719;51.052;6.982;2023-02-28T00:45:01;11.30;95.50
16243;DHT22;11719;51.052;6.982;2023-02-28T00:47:29;11.60;95.50
16243;DHT22;11719;51.052;6.982;2023-02-28T00:49:54;11.50;95.60
16243;DHT22;11719;51.052;6.982;2023-02-28T00:52:20;11.30;90.80
16243;DHT22;11719;51.052;6.982;2023-02-28T00:54:46;10.80;91.10
16243;DHT22;11719;51.052;6.982;2023-02-28T00:57:12;10.60;98.00
16243;DHT22;11719;51.052;6.982;2023-02-28T00:59:38;10.30;92.40
16243;DHT22;11719;51.052;6.982;2023-02-28T01:02:04;10.10;98.00
16243;DHT22;11719;51.052;6.982;2023-02-28T01:04:29;10.40;99.00
16243;DHT22;11719;51.052;6.982;2023-02-28T01:06:55;10.30;91.70
16243;DHT22;11719;51.052;6.982;2023-02-28T01:09:21;10.10;94.10
16243;DHT22;11719;51.052;6.982;2023-02-28T01:11:47;10.10;94.40
16243;DHT22;11719;51.052;6.982;2023-02-28T01:14:15;10.00;95.40
16243;DHT22;11719;51.052;6.982;2023-02-28T01:16:42;9.80;92.70
16243;DHT22;11719;51.052;6.982;2023-02-28T01:19:08;9.80;96.60
16243;DHT22;11719;51.052;6.982;2023-02-28T01:21:34;9.80;97.20
16243;DHT22;11719;51.052;6.982;2023-02-28T01:24:04;9.90;98.20
16243;DHT22;11719;51.052;6.982;2023-02-28T01:26:31;10.30;99.90
16243;DHT22;11719;51.052;6.982;2023-02-28T01:28:57;10.30;97.50
16243;DHT22;11719;51.052;6.982;2023-02-28T01:31:23;10.30;93.90
16243;DHT22;11719;51.052;6.982;2023-02-28T01:33:49;10.40;99.90
16243;DHT22;11719;51.052;6.982;2023-02-28T01:36:21;10.40;92.70
16243;DHT22;11719;51.052;6.982;2023-02-28T01:38:48;10.10;92.30
16243;DHT22;11719;51.052;6.982;2023-02-28T01:41:21;9.80;93.90
16243;DHT22;11719;51.052;6.982;2023-02-28T01:46:15;9.30;91.80
16243;DHT22;11719;51.052;6.982;2023-02-28T01:48:51;8.90;92.70
16243;DHT22;11719;51.052;6.982;2023-02-28T01:51:33;8.50;93.30
16243;DHT22;11719;51.052;6.982;2023-02-28T01:54:07;7.90;93.90
16243;DHT22;11719;51.052;6.982;2023-02-28T01:56:43;7.50;95.10
16243;DHT22;11719;51.052;6.982;2023-02-28T01:59:14;7.10;95.90
16243;DHT22;11719;51.052;6.982;2023-02-28T02:01:48;7.00;96.50
16243;DHT22;11719;51.052;6.982;2023-02-28T02:04:14;6.80;98.10
16243;DHT22;11719;51.052;6.982;2023-02-28T02:06:44;6.70;97.30
16243;DHT22;11719;51.052;6.982;2023-02-28T02:09:12;6.60;99.40
16243;DHT22;11719;51.052;6.982;2023-02-28T02:11:40;6.70;97.00
16243;DHT22;11719;51.052;6.982;2023-02-28T02:14:36;6.80;98.00
16243;DHT22;11719;51.052;6.982;2023-02-28T02:26:11;6.40;98.30
16243;DHT22;11719;51.052;6.982;2023-02-28T02:37:38;5.80;98.90
16243;DHT22;11719;51.052;6.982;2023-02-28T02:40:25;5.70;99.20
16243;DHT22;11719;51.052;6.982;2023-02-28T02:42:56;5.60;99.10
16243;DHT22;11719;51.052;6.982;2023-02-28T02:45:41;5.50;99.50
16243;DHT22;11719;51.052;6.982;2023-02-28T02:48:30;5.40;99.50
16243;DHT22;11719;51.052;6.982;2023-02-28T02:51:01;5.30;99.80
16243;DHT22;11719;51.052;6.982;2023-02-28T02:53:34;5.20;99.80
16243;DHT22;11719;51.052;6.982;2023-02-28T02:56:03;5.20;99.90
16243;DHT22;11719;51.052;6.982;2023-02-28T02:58:35;5.10;99.90
16243;DHT22;11719;51.052;6.982;2023-02-28T03:01:09;5.10;99.90
16243;DHT22;11719;51.052;6.982;2023-02-28T03:03:36;5.00;99.90
16243;DHT22;11719;51.052;6.982;2023-02-28T03:06:03;4.90;99.90
16243;DHT22;11719;51.052;6.982;2023-02-28T03:08:34;4.80;99.90
16243;DHT22;11719;51.052;6.982;2023-02-28T03:11:05;4.80;99.90
16243;DHT22;11719;51.052;6.982;2023-02-28T03:22:46;4.60;99.90
16243;DHT22;11719;51.052;6.982;2023-02-28T03:28:21;4.60;99.90
16243;DHT22;11719;51.052;6.982;2023-02-28T03:30:54;4.50;99.90
16243;DHT22;11719;51.052;6.982;2023-02-28T03:33:32;4.50;99.90
16243;DHT22;11719;51.052;6.982;2023-02-28T03:36:17;4.50;99.90
16243;DHT22;11719;51.052;6.982;2023-02-28T03:41:52;4.60;99.90
16243;DHT22;11719;51.052;6.982;2023-02-28T03:44:25;4.60;99.90
16243;DHT22;11719;51.052;6.982;2023-02-28T03:47:05;4.60;99.90
16243;DHT22;11719;51.052;6.982;2023-02-28T03:49:45;4.50;99.90
16243;DHT22;11719;51.052;6.982;2023-02-28T03:52:14;4.50;99.90
16243;DHT22;11719;51.052;6.982;2023-02-28T03:54:48;4.50;99.90
16243;DHT22;11719;51.052;6.982;2023-02-28T04:00:27;4.40;99.90
16243;DHT22;11719;51.052;6.982;2023-02-28T04:02:55;4.30;99.90
16243;DHT22;11719;51.052;6.982;2023-02-28T04:05:22;4.30;99.90
16243;DHT22;11719;51.052;6.982;2023-02-28T04:07:48;4.30;99.90
16243;DHT22;11719;51.052;6.982;2023-02-28T04:10:15;4.30;99.90
16243;DHT22;11719;51.052;6.982;2023-02-28T04:12:41;4.40;99.90
16243;DHT22;11719;51.052;6.982;2023-02-28T04:15:07;4.40;99.90
16243;DHT22;11719;51.052;6.982;2023-02-28T04:17:33;4.50;99.90
16243;DHT22;11719;51.052;6.982;2023-02-28T04:19:59;4.90;99.90
16243;DHT22;11719;51.052;6.982;2023-02-28T04:22:25;5.30;99.90
16243;DHT22;11719;51.052;6.982;2023-02-28T04:24:53;5.40;99.90
16243;DHT22;11719;51.052;6.982;2023-02-28T04:27:20;5.90;99.90
16243;DHT22;11719;51.052;6.982;2023-02-28T04:29:46;6.20;99.90
16243;DHT22;11719;51.052;6.982;2023-02-28T04:32:12;6.50;99.90
16243;DHT22;11719;51.052;6.982;2023-02-28T04:34:38;6.40;98.20
16243;DHT22;11719;51.052;6.982;2023-02-28T04:37:04;6.60;98.50
16243;DHT22;11719;51.052;6.982;2023-02-28T04:39:34;6.60;98.30
16243;DHT22;11719;51.052;6.982;2023-02-28T04:42:01;6.90;99.90
16243;DHT22;11719;51.052;6.982;2023-02-28T04:44:26;7.00;98.40
16243;DHT22;11719;51.052;6.982;2023-02-28T04:46:52;7.40;99.90
16243;DHT22;11719;51.052;6.982;2023-02-28T04:49:18;7.50;96.70
16243;DHT22;11719;51.052;6.982;2023-02-28T04:51:44;7.50;99.90
16243;DHT22;11719;51.052;6.982;2023-02-28T04:54:09;7.50;99.40
16243;DHT22;11719;51.052;6.982;2023-02-28T04:56:35;7.60;99.90
16243;DHT22;11719;51.052;6.982;2023-02-28T04:59:01;8.00;99.10
16243;DHT22;11719;51.052;6.982;2023-02-28T05:01:29;8.00;97.30
16243;DHT22;11719;51.052;6.982;2023-02-28T05:03:58;8.20;99.90
16243;DHT22;11719;51.052;6.982;2023-02-28T05:06:29;8.10;98.80
16243;DHT22;11719;51.052;6.982;2023-02-28T05:08:57;7.90;96.90
16243;DHT22;11719;51.052;6.982;2023-02-28T05:11:29;8.30;95.90
16243;DHT22;11719;51.052;6.982;2023-02-28T05:14:04;8.50;99.90
16243;DHT22;11719;51.052;6.982;2023-02-28T05:16:32;9.30;97.90
16243;DHT22;11719;51.052;6.982;2023-02-28T05:18:58;9.30;95.50
16243;DHT22;11719;51.052;6.982;2023-02-28T05:21:30;9.70;99.50
16243;DHT22;11719;51.052;6.982;2023-02-28T05:24:10;9.90;99.90
16243;DHT22;11719;51.052;6.982;2023-02-28T05:26:39;9.90;99.40
16243;DHT22;11719;51.052;6.982;2023-02-28T05:29:06;9.80;97.60
16243;DHT22;11719;51.052;6.982;2023-02-28T05:31:32;10.10;99.90
16243;DHT22;11719;51.052;6.982;2023-02-28T05:33:58;10.40;95.80
16243;DHT22;11719;51.052;6.982;2023-02-28T05:36:24;10.20;98.30
16243;DHT22;11719;51.052;6.982;2023-02-28T05:38:50;10.30;98.00
16243;DHT22;11719;51.052;6.982;2023-02-28T05:41:18;10.60;99.90
16243;DHT22;11719;51.052;6.982;2023-02-28T05:43:45;10.90;99.20
16243;DHT22;11719;51.052;6.982;2023-02-28T05:46:12;11.10;98.80
16243;DHT22;11719;51.052;6.982;2023-02-28T05:48:40;11.20;96.50
16243;DHT22;11719;51.052;6.982;2023-02-28T05:51:08;11.20;96.10
16243;DHT22;11719;51.052;6.982;2023-02-28T05:53:34;11.40;98.50
16243;DHT22;11719;51.052;6.982;2023-02-28T05:56:00;11.70;96.60
16243;DHT22;11719;51.052;6.982;2023-02-28T05:58:26;11.80;95.90
16243;DHT22;11719;51.052;6.982;2023-02-28T06:00:56;11.90;97.10
16243;DHT22;11719;51.052;6.982;2023-02-28T06:03:23;12.40;96.30
16243;DHT22;11719;51.052;6.982;2023-02-28T06:05:49;12.70;95.10
16243;DHT22;11719;51.052;6.982;2023-02-28T06:08:15;12.90;92.70
16243;DHT22;11719;51.052;6.982;2023-02-28T06:10:41;12.50;90.10
16243;DHT22;11719;51.052;6.982;2023-02-28T06:13:07;11.90;87.20
16243;DHT22;11719;51.052;6.982;2023-02-28T06:15:33;11.20;90.60
16243;DHT22;11719;51.052;6.982;2023-02-28T06:17:59;10.70;86.50
16243;DHT22;11719;51.052;6.982;2023-02-28T06:20:26;10.60;97.90
16243;DHT22;11719;51.052;6.982;2023-02-28T06:22:56;10.60;95.80
16243;DHT22;11719;51.052;6.982;2023-02-28T06:25:24;10.70;94.10
16243;DHT22;11719;51.052;6.982;2023-02-28T06:27:51;10.50;95.30
16243;DHT22;11719;51.052;6.982;2023-02-28T06:30:17;10.80;98.60
16243;DHT22;11719;51.052;6.982;2023-02-28T06:32:43;11.10;96.90
16243;DHT22;11719;51.052;6.982;2023-02-28T06:35:09;11.20;88.40
16243;DHT22;11719;51.052;6.982;2023-02-28T06:37:35;10.70;90.00
16243;DHT22;11719;51.052;6.982;2023-02-28T06:40:01;10.10;90.20
16243;DHT22;11719;51.052;6.982;2023-02-28T06:42:27;10.10;95.60
16243;DHT22;11719;51.052;6.982;2023-02-28T06:44:56;10.10;90.60
16243;DHT22;11719;51.052;6.982;2023-02-28T06:47:23;10.40;97.40
16243;DHT22;11719;51.052;6.982;2023-02-28T06:49:50;10.90;98.90
16243;DHT22;11719;51.052;6.982;2023-02-28T06:52:16;11.00;91.00
16243;DHT22;11719;51.052;6.982;2023-02-28T06:54:42;11.20;95.60
16243;DHT22;11719;51.052;6.982;2023-02-28T06:57:08;11.30;96.60
16243;DHT22;11719;51.052;6.982;2023-02-28T06:59:33;11.10;91.40
16243;DHT22;11719;51.052;6.982;2023-02-28T07:02:00;11.00;92.40
16243;DHT22;11719;51.052;6.982;2023-02-28T07:04:27;11.00;96.00
16243;DHT22;11719;51.052;6.982;2023-02-28T07:06:54;11.40;93.90
16243;DHT22;11719;51.052;6.982;2023-02-28T07:09:22;11.30;84.00
16243;DHT22;11719;51.052;6.982;2023-02-28T07:11:48;11.40;95.60
16243;DHT22;11719;51.052;6.982;2023-02-28T07:14:14;11.60;93.90
16243;DHT22;11719;51.052;6.982;2023-02-28T07:16:40;11.70;89.50
16243;DHT22;11719;51.052;6.982;2023-02-28T07:19:05;11.60;96.70
16243;DHT22;11719;51.052;6.982;2023-02-28T07:21:31;12.00;96.60
16243;DHT22;11719;51.052;6.982;2023-02-28T07:23:57;12.50;95.20
16243;DHT22;11719;51.052;6.982;2023-02-28T07:26:23;12.80;93.20
16243;DHT22;11719;51.052;6.982;2023-02-28T07:28:49;12.90;87.70
16243;DHT22;11719;51.052;6.982;2023-02-28T07:31:16;12.90;84.20
16243;DHT22;11719;51.052;6.982;2023-02-28T07:33:42;12.80;92.60
16243;DHT22;11719;51.052;6.982;2023-02-28T07:36:14;12.60;93.70
16243;DHT22;11719;51.052;6.982;2023-02-28T07:38:42;13.00;94.50
16243;DHT22;11719;51.052;6.982;2023-02-28T07:41:09;13.30;92.70
16243;DHT22;11719;51.052;6.982;2023-02-28T07:43:35;13.50;93.20
16243;DHT22;11719;51.052;6.982;2023-02-28T07:46:07;13.60;93.30
16243;DHT22;11719;51.052;6.982;2023-02-28T07:48:34;13.90;92.60
16243;DHT22;11719;51.052;6.982;2023-02-28T07:51:00;13.90;91.80
16243;DHT22;11719;51.052;6.982;2023-02-28T07:53:27;14.00;91.90
16243;DHT22;11719;51.052;6.982;2023-02-28T07:55:57;13.90;91.70
16243;DHT22;11719;51.052;6.982;2023-02-28T07:58:25;14.10;91.80
16243;DHT22;11719;51.052;6.982;2023-02-28T08:00:53;14.20;88.30
16243;DHT22;11719;51.052;6.982;2023-02-28T08:03:21;14.20;91.10
16243;DHT22;11719;51.052;6.982;2023-02-28T08:05:48;14.20;91.20
16243;DHT22;11719;51.052;6.982;2023-02-28T08:08:15;14.30;91.00
16243;DHT22;11719;51.052;6.982;2023-02-28T08:10:42;14.30;84.50
16243;DHT22;11719;51.052;6.982;2023-02-28T08:13:08;14.20;84.50
16243;DHT22;11719;51.052;6.982;2023-02-28T08:15:35;14.30;91.30
16243;DHT22;11719;51.052;6.982;2023-02-28T08:18:01;14.30;91.00
16243;DHT22;11719;51.052;6.982;2023-02-28T08:20:28;14.30;90.80
16243;DHT22;11719;51.052;6.982;2023-02-28T08:22:53;14.30;90.10
16243;DHT22;11719;51.052;6.982;2023-02-28T08:25:19;14.40;91.40
16243;DHT22;11719;51.052;6.982;2023-02-28T08:27:46;14.40;88.70
16243;DHT22;11719;51.052;6.982;2023-02-28T08:30:13;14.40;85.50
16243;DHT22;11719;51.052;6.982;2023-02-28T08:32:40;14.40;90.20
16243;DHT22;11719;51.052;6.982;2023-02-28T08:35:06;14.50;88.50
16243;DHT22;11719;51.052;6.982;2023-02-28T08:37:34;14.50;90.50
16243;DHT22;11719;51.052;6.982;2023-02-28T08:40:01;14.50;89.20
16243;DHT22;11719;51.052;6.982;2023-02-28T08:42:27;14.50;90.30
16243;DHT22;11719;51.052;6.982;2023-02-28T08:44:52;14.50;90.10
16243;DHT22;11719;51.052;6.982;2023-02-28T08:47:18;14.60;90.00
16243;DHT22;11719;51.052;6.982;2023-02-28T08:49:44;14.60;86.60
16243;DHT22;11719;51.052;6.982;2023-02-28T08:52:10;14.40;88.70
16243;DHT22;11719;51.052;6.982;2023-02-28T08:54:36;14.50;90.80
16243;DHT22;11719;51.052;6.982;2023-02-28T08:57:02;14.50;91.00
16243;DHT22;11719;51.052;6.982;2023-02-28T08:59:29;14.60;90.60
16243;DHT22;11719;51.052;6.982;2023-02-28T09:01:55;14.60;90.30
16243;DHT22;11719;51.052;6.982;2023-02-28T09:04:20;14.60;90.40
16243;DHT22;11719;51.052;6.982;2023-02-28T09:06:46;14.60;90.30
16243;DHT22;11719;51.052;6.982;2023-02-28T09:09:14;14.60;81.90
16243;DHT22;11719;51.052;6.982;2023-02-28T09:11:40;14.70;90.60
16243;DHT22;11719;51.052;6.982;2023-02-28T09:14:06;14.70;88.70
16243;DHT22;11719;51.052;6.982;2023-02-28T09:16:34;14.60;90.10
16243;DHT22;11719;51.052;6.982;2023-02-28T09:19:00;14.60;90.30
16243;DHT22;11719;51.052;6.982;2023-02-28T09:21:27;14.70;89.00
16243;DHT22;11719;51.052;6.982;2023-02-28T09:23:53;14.70;87.80
16243;DHT22;11719;51.052;6.982;2023-02-28T09:26:26;14.70;90.00
16243;DHT22;11719;51.052;6.982;2023-02-28T09:28:53;14.60;84.80
16243;DHT22;11719;51.052;6.982;2023-02-28T09:31:22;14.50;86.80
16243;DHT22;11719;51.052;6.982;2023-02-28T09:33:52;14.60;87.90
16243;DHT22;11719;51.052;6.982;2023-02-28T09:36:20;14.60;90.30
16243;DHT22;11719;51.052;6.982;2023-02-28T09:38:47;14.60;89.40
16243;DHT22;11719;51.052;6.982;2023-02-28T09:41:26;14.60;88.60
16243;DHT22;11719;51.052;6.982;2023-02-28T09:44:00;14.60;84.90
16243;DHT22;11719;51.052;6.982;2023-02-28T09:46:44;14.50;89.40
16243;DHT22;11719;51.052;6.982;2023-02-28T09:49:17;14.40;90.00
16243;DHT22;11719;51.052;6.982;2023-02-28T09:52:00;14.50;88.90
16243;DHT22;11719;51.052;6.982;2023-02-28T09:54:32;14.60;90.00
16243;DHT22;11719;51.052;6.982;2023-02-28T09:57:20;14.50;75.60
16243;DHT22;11719;51.052;6.982;2023-02-28T10:05:56;14.60;89.60
16243;DHT22;11719;51.052;6.982;2023-02-28T10:08:40;14.70;87.30
16243;DHT22;11719;51.052;6.982;2023-02-28T10:11:13;14.70;88.70
16243;DHT22;11719;51.052;6.982;2023-02-28T10:14:02;14.70;89.60
16243;DHT22;11719;51.052;6.982;2023-02-28T10:16:33;14.80;86.80
16243;DHT22;11719;51.052;6.982;2023-02-28T10:21:39;14.70;86.90
16243;DHT22;11719;51.052;6.982;2023-02-28T10:26:48;14.60;84.70
16243;DHT22;11719;51.052;6.982;2023-02-28T10:29:14;14.70;86.60
16243;DHT22;11719;51.052;6.982;2023-02-28T10:31:41;14.70;88.30
16243;DHT22;11719;51.052;6.982;2023-02-28T10:34:08;14.70;86.50
16243;DHT22;11719;51.052;6.982;2023-02-28T10:36:37;14.70;89.20
16243;DHT22;11719;51.052;6.982;2023-02-28T10:39:42;14.70;87.80
16243;DHT22;11719;51.052;6.982;2023-02-28T10:47:30;14.20;83.20
16243;DHT22;11719;51.052;6.982;2023-02-28T10:49:56;14.30;85.00
16243;DHT22;11719;51.052;6.982;2023-02-28T10:52:39;14.50;82.80
16243;DHT22;11719;51.052;6.982;2023-02-28T10:57:50;14.30;80.40
16243;DHT22;11719;51.052;6.982;2023-02-28T11:00:22;14.40;83.90
16243;DHT22;11719;51.052;6.982;2023-02-28T11:02:52;13.80;79.00
16243;DHT22;11719;51.052;6.982;2023-02-28T11:05:32;13.40;74.10
16243;DHT22;11719;51.052;6.982;2023-02-28T11:08:14;13.30;73.40
16243;DHT22;11719;51.052;6.982;2023-02-28T11:10:47;13.10;71.40
16243;DHT22;11719;51.052;6.982;2023-02-28T11:13:20;13.10;72.10
16243;DHT22;11719;51.052;6.982;2023-02-28T11:15:53;13.30;73.00
16243;DHT22;11719;51.052;6.982;2023-02-28T11:18:44;13.60;74.40
16243;DHT22;11719;51.052;6.982;2023-02-28T11:21:23;13.90;75.10
16243;DHT22;11719;51.052;6.982;2023-02-28T11:23:53;14.00;77.70
16243;DHT22;11719;51.052;6.982;2023-02-28T11:26:41;14.10;76.30
16243;DHT22;11719;51.052;6.982;2023-02-28T11:29:15;14.30;76.70
16243;DHT22;11719;51.052;6.982;2023-02-28T11:34:32;14.30;79.70
16243;DHT22;11719;51.052;6.982;2023-02-28T11:36:59;14.40;77.80
16243;DHT22;11719;51.052;6.982;2023-02-28T11:39:27;14.30;65.20
16243;DHT22;11719;51.052;6.982;2023-02-28T11:45:16;14.50;79.20
16243;DHT22;11719;51.052;6.982;2023-02-28T11:56:38;14.60;79.30
16243;DHT22;11719;51.052;6.982;2023-02-28T12:05:31;14.70;82.60
16243;DHT22;11719;51.052;6.982;2023-02-28T12:08:20;14.60;83.80
16243;DHT22;11719;51.052;6.982;2023-02-28T12:28:50;14.70;83.10
16243;DHT22;11719;51.052;6.982;2023-02-28T12:31:26;14.80;82.50
16243;DHT22;11719;51.052;6.982;2023-02-28T12:33:59;14.80;83.40
16243;DHT22;11719;51.052;6.982;2023-02-28T12:36:27;14.70;84.50
16243;DHT22;11719;51.052;6.982;2023-02-28T12:39:02;14.70;84.00
16243;DHT22;11719;51.052;6.982;2023-02-28T12:41:47;14.70;83.30
16243;DHT22;11719;51.052;6.982;2023-02-28T12:44:26;14.70;82.30
16243;DHT22;11719;51.052;6.982;2023-02-28T12:47:02;14.70;83.80
16243;DHT22;11719;51.052;6.982;2023-02-28T12:52:00;14.70;84.90
16243;DHT22;11719;51.052;6.982;2023-02-28T12:54:39;14.70;83.20
16243;DHT22;11719;51.052;6.982;2023-02-28T12:57:56;14.80;84.30
16243;DHT22;11719;51.052;6.982;2023-02-28T13:00:16;14.90;83.40
16243;DHT22;11719;51.052;6.982;2023-02-28T13:11:29;14.70;85.80
16243;DHT22;11719;51.052;6.982;2023-02-28T13:14:05;14.70;85.40
16243;DHT22;11719;51.052;6.982;2023-02-28T13:16:55;14.80;84.90
16243;DHT22;11719;51.052;6.982;2023-02-28T13:19:27;14.80;85.70
16243;DHT22;11719;51.052;6.982;2023-02-28T13:21:56;14.70;85.70
16243;DHT22;11719;51.052;6.982;2023-02-28T13:24:41;14.80;86.20
16243;DHT22;11719;51.052;6.982;2023-02-28T13:29:37;14.90;75.70
16243;DHT22;11719;51.052;6.982;2023-02-28T13:39:55;15.20;85.80
16243;DHT22;11719;51.052;6.982;2023-02-28T13:42:35;15.20;84.70
16243;DHT22;11719;51.052;6.982;2023-02-28T13:47:42;15.50;82.50
16243;DHT22;11719;51.052;6.982;2023-02-28T14:02:06;15.80;81.90
16243;DHT22;11719;51.052;6.982;2023-02-28T14:07:36;16.80;73.60
16243;DHT22;11719;51.052;6.982;2023-02-28T14:10:08;17.20;74.70
16243;DHT22;11719;51.052;6.982;2023-02-28T14:13:36;16.90;78.60
16243;DHT22;11719;51.052;6.982;2023-02-28T14:16:21;16.60;80.00
16243;DHT22;11719;51.052;6.982;2023-02-28T14:19:01;16.20;80.80
16243;DHT22;11719;51.052;6.982;2023-02-28T14:21:33;15.90;81.20
16243;DHT22;11719;51.052;6.982;2023-02-28T14:35:50;15.20;84.10
16243;DHT22;11719;51.052;6.982;2023-02-28T14:38:31;15.10;81.80
16243;DHT22;11719;51.052;6.982;2023-02-28T14:41:21;15.00;83.40
16243;DHT22;11719;51.052;6.982;2023-02-28T14:43:51;14.90;86.10
16243;DHT22;11719;51.052;6.982;2023-02-28T14:46:28;14.90;86.10
16243;DHT22;11719;51.052;6.982;2023-02-28T14:48:58;14.90;84.10
16243;DHT22;11719;51.052;6.982;2023-02-28T14:51:24;15.00;83.70
16243;DHT22;11719;51.052;6.982;2023-02-28T14:53:56;14.90;61.60
16243;DHT22;11719;51.052;6.982;2023-02-28T14:56:43;14.90;83.90
16243;DHT22;11719;51.052;6.982;2023-02-28T14:59:29;14.90;84.50
16243;DHT22;11719;51.052;6.982;2023-02-28T15:02:22;14.80;64.10
16243;DHT22;11719;51.052;6.982;2023-02-28T15:04:58;14.60;83.10
16243;DHT22;11719;51.052;6.982;2023-02-28T15:07:26;14.60;84.60
16243;DHT22;11719;51.052;6.982;2023-02-28T15:10:26;14.70;86.10
16243;DHT22;11719;51.052;6.982;2023-02-28T15:15:43;14.60;85.60
16243;DHT22;11719;51.052;6.982;2023-02-28T15:21:27;14.80;81.10
16243;DHT22;11719;51.052;6.982;2023-02-28T15:26:32;14.60;80.10
16243;DHT22;11719;51.052;6.982;2023-02-28T15:29:01;14.50;67.50
16243;DHT22;11719;51.052;6.982;2023-02-28T15:31:39;14.30;84.30
16243;DHT22;11719;51.052;6.982;2023-02-28T15:34:29;14.40;86.60
16243;DHT22;11719;51.052;6.982;2023-02-28T15:36:58;14.50;86.80
16243;DHT22;11719;51.052;6.982;2023-02-28T15:39:27;14.50;84.20
16243;DHT22;11719;51.052;6.982;2023-02-28T15:42:17;14.60;85.30
16243;DHT22;11719;51.052;6.982;2023-02-28T15:44:44;14.60;86.20
16243;DHT22;11719;51.052;6.982;2023-02-28T15:47:24;14.70;87.20
16243;DHT22;11719;51.052;6.982;2023-02-28T15:49:54;14.70;85.50
16243;DHT22;11719;51.052;6.982;2023-02-28T15:52:39;14.80;84.30
16243;DHT22;11719;51.052;6.982;2023-02-28T15:55:22;14.70;84.60
16243;DHT22;11719;51.052;6.982;2023-02-28T15:57:51;14.60;80.20
16243;DHT22;11719;51.052;6.982;2023-02-28T16:00:21;14.60;85.90
16243;DHT22;11719;51.052;6.982;2023-02-28T16:02:48;14.70;83.50
16243;DHT22;11719;51.052;6.982;2023-02-28T16:05:30;14.70;86.10
16243;DHT22;11719;51.052;6.982;2023-02-28T16:08:15;14.70;85.30
16243;DHT22;11719;51.052;6.982;2023-02-28T16:10:41;14.80;78.50
16243;DHT22;11719;51.052;6.982;2023-02-28T16:13:11;14.70;80.30
16243;DHT22;11719;51.052;6.982;2023-02-28T16:15:42;14.60;65.30
16243;DHT22;11719;51.052;6.982;2023-02-28T16:18:11;14.40;84.40
16243;DHT22;11719;51.052;6.982;2023-02-28T16:20:37;14.50;86.90
16243;DHT22;11719;51.052;6.982;2023-02-28T16:23:04;14.50;86.90
16243;DHT22;11719;51.052;6.982;2023-02-28T16:25:38;14.60;80.80
16243;DHT22;11719;51.052;6.982;2023-02-28T16:30:45;14.70;85.20
16243;DHT22;11719;51.052;6.982;2023-02-28T16:33:11;14.70;85.80
16243;DHT22;11719;51.052;6.982;2023-02-28T16:35:36;14.80;85.60
16243;DHT22;11719;51.052;6.982;2023-02-28T16:38:02;14.70;86.40
16243;DHT22;11719;51.052;6.982;2023-02-28T16:40:30;14.80;85.00
16243;DHT22;11719;51.052;6.982;2023-02-28T16:43:00;14.80;81.40
16243;DHT22;11719;51.052;6.982;2023-02-28T16:45:29;14.70;81.40
16243;DHT22;11719;51.052;6.982;2023-02-28T16:47:55;14.70;83.80
16243;DHT22;11719;51.052;6.982;2023-02-28T16:50:27;14.70;85.60
16243;DHT22;11719;51.052;6.982;2023-02-28T16:52:54;14.70;85.40
16243;DHT22;11719;51.052;6.982;2023-02-28T16:55:22;14.80;85.20
16243;DHT22;11719;51.052;6.982;2023-02-28T16:57:52;14.70;76.60
16243;DHT22;11719;51.052;6.982;2023-02-28T17:00:19;14.50;69.80
16243;DHT22;11719;51.052;6.982;2023-02-28T17:02:45;14.20;65.10
16243;DHT22;11719;51.052;6.982;2023-02-28T17:05:12;13.60;65.80
16243;DHT22;11719;51.052;6.982;2023-02-28T17:07:39;13.20;86.20
16243;DHT22;11719;51.052;6.982;2023-02-28T17:10:20;13.40;86.50
16243;DHT22;11719;51.052;6.982;2023-02-28T17:12:48;13.70;88.90
16243;DHT22;11719;51.052;6.982;2023-02-28T17:15:15;13.80;87.90
16243;DHT22;11719;51.052;6.982;2023-02-28T17:17:42;13.80;82.20
16243;DHT22;11719;51.052;6.982;2023-02-28T17:20:17;13.80;82.50
16243;DHT22;11719;51.052;6.982;2023-02-28T17:22:48;13.40;70.20
16243;DHT22;11719;51.052;6.982;2023-02-28T17:25:14;13.20;89.00
16243;DHT22;11719;51.052;6.982;2023-02-28T17:27:40;13.20;89.30
16243;DHT22;11719;51.052;6.982;2023-02-28T17:30:23;13.40;88.30
16243;DHT22;11719;51.052;6.982;2023-02-28T17:32:53;13.40;76.40
16243;DHT22;11719;51.052;6.982;2023-02-28T17:35:19;13.20;82.50
16243;DHT22;11719;51.052;6.982;2023-02-28T17:37:45;12.80;87.50
16243;DHT22;11719;51.052;6.982;2023-02-28T17:40:16;13.00;90.50
16243;DHT22;11719;51.052;6.982;2023-02-28T17:42:46;12.80;76.60
16243;DHT22;11719;51.052;6.982;2023-02-28T17:45:13;12.40;73.00
16243;DHT22;11719;51.052;6.982;2023-02-28T17:47:42;11.80;73.30
16243;DHT22;11719;51.052;6.982;2023-02-28T17:50:15;11.40;74.30
16243;DHT22;11719;51.052;6.982;2023-02-28T17:52:42;11.00;76.90
16243;DHT22;11719;51.052;6.982;2023-02-28T17:55:09;10.90;80.20
16243;DHT22;11719;51.052;6.982;2023-02-28T17:57:36;10.90;79.40
16243;DHT22;11719;51.052;6.982;2023-02-28T18:00:02;10.60;80.70
16243;DHT22;11719;51.052;6.982;2023-02-28T18:02:32;10.30;80.60
16243;DHT22;11719;51.052;6.982;2023-02-28T18:04:58;9.90;80.00
16243;DHT22;11719;51.052;6.982;2023-02-28T18:07:24;9.60;83.10
16243;DHT22;11719;51.052;6.982;2023-02-28T18:09:50;9.60;93.90
16243;DHT22;11719;51.052;6.982;2023-02-28T18:12:16;9.90;90.90
16243;DHT22;11719;51.052;6.982;2023-02-28T18:14:42;10.30;85.80
16243;DHT22;11719;51.052;6.982;2023-02-28T18:17:10;10.70;91.50
16243;DHT22;11719;51.052;6.982;2023-02-28T18:19:37;11.10;93.90
16243;DHT22;11719;51.052;6.982;2023-02-28T18:22:03;10.80;81.90
16243;DHT22;11719;51.052;6.982;2023-02-28T18:24:32;10.80;90.20
16243;DHT22;11719;51.052;6.982;2023-02-28T18:26:58;10.60;82.60
16243;DHT22;11719;51.052;6.982;2023-02-28T18:29:26;10.50;91.60
16243;DHT22;11719;51.052;6.982;2023-02-28T18:31:54;10.50;92.60
16243;DHT22;11719;51.052;6.982;2023-02-28T18:34:22;10.40;87.30